sensor_id;sensor_type;location;lat;lon;timestamp;temperature;humidity
70820;DHT22;58439;51.046;13.692;2023-04-03T00:01:36;3.90;85.50
70820;DHT22;58439;51.046;13.692;2023-04-03T00:04:05;3.90;85.80
70820;DHT22;58439;51.046;13.692;2023-04-03T00:06:34;3.80;85.20
70820;DHT22;58439;51.046;13.692;2023-04-03T00:09:02;3.80;85.40
70820;DHT22;58439;51.046;13.692;2023-04-03T00:11:29;3.80;85.30
70820;DHT22;58439;51.046;13.692;2023-04-03T00:13:56;3.70;85.00
70820;DHT22;58439;51.046;13.692;2023-04-03T00:16:24;3.70;84.90
70820;DHT22;58439;51.046;13.692;2023-04-03T00:18:51;3.70;84.90
70820;DHT22;58439;51.046;13.692;2023-04-03T00:21:18;3.60;84.60
70820;DHT22;58439;51.046;13.692;2023-04-03T00:23:45;3.60;84.40
70820;DHT22;58439;51.046;13.692;2023-04-03T00:26:13;3.60;84.60
70820;DHT22;58439;51.046;13.692;2023-04-03T00:28:40;3.60;84.80
70820;DHT22;58439;51.046;13.692;2023-04-03T00:31:08;3.50;84.90
70820;DHT22;58439;51.046;13.692;2023-04-03T00:33:35;3.50;85.00
70820;DHT22;58439;51.046;13.692;2023-04-03T00:36:10;3.50;84.00
70820;DHT22;58439;51.046;13.692;2023-04-03T00:38:48;3.50;83.50
70820;DHT22;58439;51.046;13.692;2023-04-03T00:41:18;3.50;84.10
70820;DHT22;58439;51.046;13.692;2023-04-03T00:43:59;3.40;84.50
70820;DHT22;58439;51.046;13.692;2023-04-03T00:46:38;3.30;84.70
70820;DHT22;58439;51.046;13.692;2023-04-03T00:49:21;3.30;85.20
70820;DHT22;58439;51.046;13.692;2023-04-03T00:51:48;3.30;85.10
70820;DHT22;58439;51.046;13.692;2023-04-03T00:54:15;3.30;84.60
70820;DHT22;58439;51.046;13.692;2023-04-03T01:00:30;3.20;84.60
70820;DHT22;58439;51.046;13.692;2023-04-03T01:02:58;3.20;84.60
70820;DHT22;58439;51.046;13.692;2023-04-03T01:05:26;3.10;85.10
70820;DHT22;58439;51.046;13.692;2023-04-03T01:07:54;3.10;84.90
70820;DHT22;58439;51.046;13.692;2023-04-03T01:10:23;3.10;85.10
70820;DHT22;58439;51.046;13.692;2023-04-03T01:12:52;3.10;84.80
70820;DHT22;58439;51.046;13.692;2023-04-03T01:15:25;3.10;84.70
70820;DHT22;58439;51.046;13.692;2023-04-03T01:18:09;3.00;84.80
70820;DHT22;58439;51.046;13.692;2023-04-03T01:23:52;3.00;84.80
70820;DHT22;58439;51.046;13.692;2023-04-03T01:26:49;3.00;83.90
70820;DHT22;58439;51.046;13.692;2023-04-03T01:29:20;3.00;83.80
70820;DHT22;58439;51.046;13.692;2023-04-03T01:32:01;3.00;84.00
70820;DHT22;58439;51.046;13.692;2023-04-03T01:34:30;3.00;83.50
70820;DHT22;58439;51.046;13.692;2023-04-03T01:36:58;2.90;83.60
70820;DHT22;58439;51.046;13.692;2023-04-03T01:39:29;2.90;83.90
70820;DHT22;58439;51.046;13.692;2023-04-03T01:42:00;2.90;83.70
70820;DHT22;58439;51.046;13.692;2023-04-03T01:44:35;2.80;83.30
70820;DHT22;58439;51.046;13.692;2023-04-03T01:47:06;2.80;83.10
70820;DHT22;58439;51.046;13.692;2023-04-03T01:49:34;2.80;83.10
70820;DHT22;58439;51.046;13.692;2023-04-03T01:52:04;2.70;83.50
70820;DHT22;58439;51.046;13.692;2023-04-03T01:54:31;2.70;83.70
70820;DHT22;58439;51.046;13.692;2023-04-03T01:56:59;2.70;83.70
70820;DHT22;58439;51.046;13.692;2023-04-03T01:59:29;2.60;83.70
70820;DHT22;58439;51.046;13.692;2023-04-03T02:01:56;2.60;83.50
70820;DHT22;58439;51.046;13.692;2023-04-03T02:04:26;2.60;83.10
70820;DHT22;58439;51.046;13.692;2023-04-03T02:06:53;2.60;83.40
70820;DHT22;58439;51.046;13.692;2023-04-03T02:09:22;2.50;83.70
70820;DHT22;58439;51.046;13.692;2023-04-03T02:11:52;2.50;84.00
70820;DHT22;58439;51.046;13.692;2023-04-03T02:14:19;2.50;83.40
70820;DHT22;58439;51.046;13.692;2023-04-03T02:17:11;2.50;83.40
70820;DHT22;58439;51.046;13.692;2023-04-03T02:19:57;2.40;84.10
70820;DHT22;58439;51.046;13.692;2023-04-03T02:22:35;2.40;84.70
70820;DHT22;58439;51.046;13.692;2023-04-03T02:25:20;2.30;84.90
70820;DHT22;58439;51.046;13.692;2023-04-03T02:27:48;2.30;85.10
70820;DHT22;58439;51.046;13.692;2023-04-03T02:30:18;2.20;84.70
70820;DHT22;58439;51.046;13.692;2023-04-03T02:32:45;2.20;84.80
70820;DHT22;58439;51.046;13.692;2023-04-03T02:35:23;2.20;84.90
70820;DHT22;58439;51.046;13.692;2023-04-03T02:37:52;2.10;85.30
70820;DHT22;58439;51.046;13.692;2023-04-03T02:40:19;2.10;85.40
70820;DHT22;58439;51.046;13.692;2023-04-03T02:43:19;2.10;85.60
70820;DHT22;58439;51.046;13.692;2023-04-03T02:46:17;2.00;85.40
70820;DHT22;58439;51.046;13.692;2023-04-03T02:48:45;2.00;85.00
70820;DHT22;58439;51.046;13.692;2023-04-03T02:51:12;1.90;85.20
70820;DHT22;58439;51.046;13.692;2023-04-03T02:53:39;1.80;85.90
70820;DHT22;58439;51.046;13.692;2023-04-03T02:56:12;1.80;86.20
70820;DHT22;58439;51.046;13.692;2023-04-03T02:58:40;1.70;86.20
70820;DHT22;58439;51.046;13.692;2023-04-03T03:01:08;1.70;86.80
70820;DHT22;58439;51.046;13.692;2023-04-03T03:03:35;1.60;87.20
70820;DHT22;58439;51.046;13.692;2023-04-03T03:06:11;1.50;87.40
70820;DHT22;58439;51.046;13.692;2023-04-03T03:08:41;1.50;87.70
70820;DHT22;58439;51.046;13.692;2023-04-03T03:11:08;1.40;88.10
70820;DHT22;58439;51.046;13.692;2023-04-03T03:13:39;1.20;88.70
70820;DHT22;58439;51.046;13.692;2023-04-03T03:16:43;1.10;90.00
70820;DHT22;58439;51.046;13.692;2023-04-03T03:19:22;1.10;90.40
70820;DHT22;58439;51.046;13.692;2023-04-03T03:21:55;1.00;90.60
70820;DHT22;58439;51.046;13.692;2023-04-03T03:24:53;1.00;91.30
70820;DHT22;58439;51.046;13.692;2023-04-03T03:27:20;1.00;91.60
70820;DHT22;58439;51.046;13.692;2023-04-03T03:29:47;0.90;91.40
70820;DHT22;58439;51.046;13.692;2023-04-03T03:32:15;0.90;91.80
70820;DHT22;58439;51.046;13.692;2023-04-03T03:34:42;0.90;92.10
70820;DHT22;58439;51.046;13.692;2023-04-03T03:37:09;0.80;92.10
70820;DHT22;58439;51.046;13.692;2023-04-03T03:39:37;0.80;92.20
70820;DHT22;58439;51.046;13.692;2023-04-03T03:42:04;0.70;92.40
70820;DHT22;58439;51.046;13.692;2023-04-03T03:44:31;0.70;92.70
70820;DHT22;58439;51.046;13.692;2023-04-03T03:46:59;0.60;92.80
70820;DHT22;58439;51.046;13.692;2023-04-03T03:49:27;0.60;93.00
70820;DHT22;58439;51.046;13.692;2023-04-03T03:51:55;0.50;93.30
70820;DHT22;58439;51.046;13.692;2023-04-03T03:54:22;0.50;93.40
70820;DHT22;58439;51.046;13.692;2023-04-03T03:56:50;0.50;93.60
70820;DHT22;58439;51.046;13.692;2023-04-03T03:59:18;0.50;93.60
70820;DHT22;58439;51.046;13.692;2023-04-03T04:01:45;0.50;93.80
70820;DHT22;58439;51.046;13.692;2023-04-03T04:04:13;0.50;93.90
70820;DHT22;58439;51.046;13.692;2023-04-03T04:07:02;0.40;93.90
70820;DHT22;58439;51.046;13.692;2023-04-03T04:09:32;0.40;94.30
70820;DHT22;58439;51.046;13.692;2023-04-03T04:11:59;0.30;94.60
70820;DHT22;58439;51.046;13.692;2023-04-03T04:14:59;0.30;94.80
70820;DHT22;58439;51.046;13.692;2023-04-03T04:22:16;0.20;95.10
70820;DHT22;58439;51.046;13.692;2023-04-03T04:24:56;0.10;95.50
70820;DHT22;58439;51.046;13.692;2023-04-03T04:27:24;0.10;95.90
70820;DHT22;58439;51.046;13.692;2023-04-03T04:30:03;0.10;96.20
70820;DHT22;58439;51.046;13.692;2023-04-03T04:32:47;0.00;96.30
70820;DHT22;58439;51.046;13.692;2023-04-03T04:35:33;0.00;96.40
70820;DHT22;58439;51.046;13.692;2023-04-03T04:38:07;0.00;96.70
70820;DHT22;58439;51.046;13.692;2023-04-03T04:41:11;0.00;96.70
70820;DHT22;58439;51.046;13.692;2023-04-03T04:44:22;0.00;96.80
70820;DHT22;58439;51.046;13.692;2023-04-03T04:46:56;-0.10;97.20
70820;DHT22;58439;51.046;13.692;2023-04-03T04:53:44;-0.10;97.40
70820;DHT22;58439;51.046;13.692;2023-04-03T04:56:15;0.00;97.20
70820;DHT22;58439;51.046;13.692;2023-04-03T04:58:43;0.00;97.50
70820;DHT22;58439;51.046;13.692;2023-04-03T05:01:11;0.00;97.60
70820;DHT22;58439;51.046;13.692;2023-04-03T05:04:01;0.00;97.50
70820;DHT22;58439;51.046;13.692;2023-04-03T05:06:29;0.10;97.60
70820;DHT22;58439;51.046;13.692;2023-04-03T05:09:02;0.20;97.60
70820;DHT22;58439;51.046;13.692;2023-04-03T05:11:31;0.30;97.50
70820;DHT22;58439;51.046;13.692;2023-04-03T05:13:59;0.50;97.20
70820;DHT22;58439;51.046;13.692;2023-04-03T05:16:28;0.60;97.00
70820;DHT22;58439;51.046;13.692;2023-04-03T05:19:02;0.70;96.90
70820;DHT22;58439;51.046;13.692;2023-04-03T05:21:34;0.80;96.60
70820;DHT22;58439;51.046;13.692;2023-04-03T05:24:10;1.00;96.30
70820;DHT22;58439;51.046;13.692;2023-04-03T05:26:40;1.00;96.10
70820;DHT22;58439;51.046;13.692;2023-04-03T05:29:09;1.10;95.80
70820;DHT22;58439;51.046;13.692;2023-04-03T05:31:37;1.10;95.60
70820;DHT22;58439;51.046;13.692;2023-04-03T05:34:07;1.10;95.50
70820;DHT22;58439;51.046;13.692;2023-04-03T05:36:36;1.20;95.60
70820;DHT22;58439;51.046;13.692;2023-04-03T05:39:07;1.20;95.10
70820;DHT22;58439;51.046;13.692;2023-04-03T05:41:38;1.20;94.70
70820;DHT22;58439;51.046;13.692;2023-04-03T05:44:05;1.20;94.30
70820;DHT22;58439;51.046;13.692;2023-04-03T05:46:33;1.20;94.40
70820;DHT22;58439;51.046;13.692;2023-04-03T05:49:03;1.20;94.20
70820;DHT22;58439;51.046;13.692;2023-04-03T05:51:36;1.20;94.10
70820;DHT22;58439;51.046;13.692;2023-04-03T05:54:18;1.20;93.90
70820;DHT22;58439;51.046;13.692;2023-04-03T05:56:52;1.20;94.20
70820;DHT22;58439;51.046;13.692;2023-04-03T05:59:21;1.20;93.90
70820;DHT22;58439;51.046;13.692;2023-04-03T06:01:51;1.30;93.90
70820;DHT22;58439;51.046;13.692;2023-04-03T06:04:19;1.30;93.60
70820;DHT22;58439;51.046;13.692;2023-04-03T06:06:50;1.30;93.30
70820;DHT22;58439;51.046;13.692;2023-04-03T06:09:25;1.40;93.30
70820;DHT22;58439;51.046;13.692;2023-04-03T06:11:56;1.40;93.30
70820;DHT22;58439;51.046;13.692;2023-04-03T06:14:27;1.40;93.10
70820;DHT22;58439;51.046;13.692;2023-04-03T06:16:54;1.50;93.10
70820;DHT22;58439;51.046;13.692;2023-04-03T06:19:22;1.40;92.80
70820;DHT22;58439;51.046;13.692;2023-04-03T06:22:25;1.50;92.80
70820;DHT22;58439;51.046;13.692;2023-04-03T06:36:09;1.50;92.50
70820;DHT22;58439;51.046;13.692;2023-04-03T06:43:54;1.60;92.60
70820;DHT22;58439;51.046;13.692;2023-04-03T06:46:25;1.60;92.50
70820;DHT22;58439;51.046;13.692;2023-04-03T06:48:54;1.60;92.60
70820;DHT22;58439;51.046;13.692;2023-04-03T06:51:23;1.60;92.70
70820;DHT22;58439;51.046;13.692;2023-04-03T06:53:55;1.70;92.60
70820;DHT22;58439;51.046;13.692;2023-04-03T06:56:24;1.70;92.50
70820;DHT22;58439;51.046;13.692;2023-04-03T06:58:54;1.70;92.20
70820;DHT22;58439;51.046;13.692;2023-04-03T07:01:25;1.70;91.80
70820;DHT22;58439;51.046;13.692;2023-04-03T07:04:21;1.80;92.00
70820;DHT22;58439;51.046;13.692;2023-04-03T07:12:41;1.90;92.00
70820;DHT22;58439;51.046;13.692;2023-04-03T07:15:16;1.90;91.60
70820;DHT22;58439;51.046;13.692;2023-04-03T07:31:41;2.10;90.70
70820;DHT22;58439;51.046;13.692;2023-04-03T07:34:16;2.10;90.80
70820;DHT22;58439;51.046;13.692;2023-04-03T07:39:59;2.20;90.50
70820;DHT22;58439;51.046;13.692;2023-04-03T07:43:03;2.20;90.30
70820;DHT22;58439;51.046;13.692;2023-04-03T07:51:52;2.30;90.10
70820;DHT22;58439;51.046;13.692;2023-04-03T07:54:48;2.20;89.40
70820;DHT22;58439;51.046;13.692;2023-04-03T07:57:25;2.30;89.50
70820;DHT22;58439;51.046;13.692;2023-04-03T07:59:52;2.40;89.10
70820;DHT22;58439;51.046;13.692;2023-04-03T08:02:21;2.50;88.70
70820;DHT22;58439;51.046;13.692;2023-04-03T08:04:49;2.60;88.40
70820;DHT22;58439;51.046;13.692;2023-04-03T08:07:20;2.70;88.10
70820;DHT22;58439;51.046;13.692;2023-04-03T08:09:48;2.80;87.20
70820;DHT22;58439;51.046;13.692;2023-04-03T08:12:46;2.90;86.50
70820;DHT22;58439;51.046;13.692;2023-04-03T08:15:18;3.00;86.20
70820;DHT22;58439;51.046;13.692;2023-04-03T08:17:46;3.10;85.50
70820;DHT22;58439;51.046;13.692;2023-04-03T08:20:30;3.30;85.00
70820;DHT22;58439;51.046;13.692;2023-04-03T08:23:01;3.40;83.20
70820;DHT22;58439;51.046;13.692;2023-04-03T08:25:44;3.40;82.00
70820;DHT22;58439;51.046;13.692;2023-04-03T08:28:27;3.50;80.00
70820;DHT22;58439;51.046;13.692;2023-04-03T08:31:14;3.50;79.60
70820;DHT22;58439;51.046;13.692;2023-04-03T08:41:41;3.70;77.10
70820;DHT22;58439;51.046;13.692;2023-04-03T08:44:47;3.90;76.20
70820;DHT22;58439;51.046;13.692;2023-04-03T08:47:47;3.90;74.80
70820;DHT22;58439;51.046;13.692;2023-04-03T08:50:41;4.00;75.00
70820;DHT22;58439;51.046;13.692;2023-04-03T08:53:21;4.10;74.10
70820;DHT22;58439;51.046;13.692;2023-04-03T08:55:53;4.10;73.00
70820;DHT22;58439;51.046;13.692;2023-04-03T08:58:33;4.10;72.20
70820;DHT22;58439;51.046;13.692;2023-04-03T09:01:48;4.20;71.10
70820;DHT22;58439;51.046;13.692;2023-04-03T09:04:17;4.20;71.80
70820;DHT22;58439;51.046;13.692;2023-04-03T09:07:02;4.30;71.10
70820;DHT22;58439;51.046;13.692;2023-04-03T09:09:42;4.40;70.30
70820;DHT22;58439;51.046;13.692;2023-04-03T09:12:22;4.50;69.50
70820;DHT22;58439;51.046;13.692;2023-04-03T09:19:08;4.50;66.80
70820;DHT22;58439;51.046;13.692;2023-04-03T09:22:13;4.60;67.30
70820;DHT22;58439;51.046;13.692;2023-04-03T09:24:49;4.80;67.70
70820;DHT22;58439;51.046;13.692;2023-04-03T09:27:24;5.20;64.70
70820;DHT22;58439;51.046;13.692;2023-04-03T09:29:56;5.30;62.50
70820;DHT22;58439;51.046;13.692;2023-04-03T09:32:30;5.40;60.40
70820;DHT22;58439;51.046;13.692;2023-04-03T09:35:03;5.40;58.10
70820;DHT22;58439;51.046;13.692;2023-04-03T09:40:38;5.50;54.40
70820;DHT22;58439;51.046;13.692;2023-04-03T09:43:23;5.60;54.40
70820;DHT22;58439;51.046;13.692;2023-04-03T09:46:20;5.60;53.30
70820;DHT22;58439;51.046;13.692;2023-04-03T09:56:53;5.60;50.60
70820;DHT22;58439;51.046;13.692;2023-04-03T09:59:22;5.90;48.70
70820;DHT22;58439;51.046;13.692;2023-04-03T10:02:12;6.20;47.20
70820;DHT22;58439;51.046;13.692;2023-04-03T10:04:49;6.60;46.70
70820;DHT22;58439;51.046;13.692;2023-04-03T10:07:37;7.00;45.10
70820;DHT22;58439;51.046;13.692;2023-04-03T10:10:31;7.10;42.50
70820;DHT22;58439;51.046;13.692;2023-04-03T10:13:25;7.10;43.60
70820;DHT22;58439;51.046;13.692;2023-04-03T10:16:41;7.00;43.50
70820;DHT22;58439;51.046;13.692;2023-04-03T10:19:34;6.60;42.80
70820;DHT22;58439;51.046;13.692;2023-04-03T10:25:47;6.20;43.40
70820;DHT22;58439;51.046;13.692;2023-04-03T10:28:43;6.50;42.70
70820;DHT22;58439;51.046;13.692;2023-04-03T10:31:28;7.00;41.60
70820;DHT22;58439;51.046;13.692;2023-04-03T10:34:38;7.00;41.20
70820;DHT22;58439;51.046;13.692;2023-04-03T10:37:25;6.90;41.00
70820;DHT22;58439;51.046;13.692;2023-04-03T10:40:23;6.80;40.70
70820;DHT22;58439;51.046;13.692;2023-04-03T10:46:09;6.50;41.20
70820;DHT22;58439;51.046;13.692;2023-04-03T10:49:15;6.50;40.70
70820;DHT22;58439;51.046;13.692;2023-04-03T10:52:06;6.40;40.20
70820;DHT22;58439;51.046;13.692;2023-04-03T10:54:49;6.40;40.20
70820;DHT22;58439;51.046;13.692;2023-04-03T10:57:25;6.30;39.80
70820;DHT22;58439;51.046;13.692;2023-04-03T10:59:59;6.40;39.70
70820;DHT22;58439;51.046;13.692;2023-04-03T11:02:39;6.50;39.20
70820;DHT22;58439;51.046;13.692;2023-04-03T11:05:45;6.80;38.80
70820;DHT22;58439;51.046;13.692;2023-04-03T11:08:27;7.00;37.80
70820;DHT22;58439;51.046;13.692;2023-04-03T11:11:04;7.00;37.40
70820;DHT22;58439;51.046;13.692;2023-04-03T11:13:59;6.90;36.20
70820;DHT22;58439;51.046;13.692;2023-04-03T11:16:37;6.70;35.80
70820;DHT22;58439;51.046;13.692;2023-04-03T11:19:35;6.60;35.90
70820;DHT22;58439;51.046;13.692;2023-04-03T11:22:30;6.60;36.40
70820;DHT22;58439;51.046;13.692;2023-04-03T11:27:56;6.50;36.70
70820;DHT22;58439;51.046;13.692;2023-04-03T11:31:02;6.60;37.40
70820;DHT22;58439;51.046;13.692;2023-04-03T11:36:59;6.90;36.20
70820;DHT22;58439;51.046;13.692;2023-04-03T11:39:31;7.30;35.40
70820;DHT22;58439;51.046;13.692;2023-04-03T11:42:17;7.80;34.70
70820;DHT22;58439;51.046;13.692;2023-04-03T11:48:03;7.90;33.30
70820;DHT22;58439;51.046;13.692;2023-04-03T11:50:50;7.60;33.70
70820;DHT22;58439;51.046;13.692;2023-04-03T11:53:33;7.40;34.00
70820;DHT22;58439;51.046;13.692;2023-04-03T12:01:51;7.50;33.70
70820;DHT22;58439;51.046;13.692;2023-04-03T12:04:26;7.40;34.10
70820;DHT22;58439;51.046;13.692;2023-04-03T12:07:02;7.20;34.50
70820;DHT22;58439;51.046;13.692;2023-04-03T12:12:30;6.80;35.20
70820;DHT22;58439;51.046;13.692;2023-04-03T12:15:23;6.80;35.10
70820;DHT22;58439;51.046;13.692;2023-04-03T12:26:46;7.30;34.20
70820;DHT22;58439;51.046;13.692;2023-04-03T12:35:28;7.60;33.30
70820;DHT22;58439;51.046;13.692;2023-04-03T12:44:26;7.10;34.30
70820;DHT22;58439;51.046;13.692;2023-04-03T12:47:34;7.00;34.70
70820;DHT22;58439;51.046;13.692;2023-04-03T12:50:18;7.20;34.10
70820;DHT22;58439;51.046;13.692;2023-04-03T12:52:57;7.30;33.60
70820;DHT22;58439;51.046;13.692;2023-04-03T12:55:27;7.20;34.00
70820;DHT22;58439;51.046;13.692;2023-04-03T12:58:31;7.10;34.70
70820;DHT22;58439;51.046;13.692;2023-04-03T13:01:04;7.00;35.30
70820;DHT22;58439;51.046;13.692;2023-04-03T13:03:44;6.90;35.30
70820;DHT22;58439;51.046;13.692;2023-04-03T13:06:19;6.80;35.40
70820;DHT22;58439;51.046;13.692;2023-04-03T13:08:59;6.80;36.10
70820;DHT22;58439;51.046;13.692;2023-04-03T13:11:35;6.90;36.20
70820;DHT22;58439;51.046;13.692;2023-04-03T13:14:18;7.10;36.10
70820;DHT22;58439;51.046;13.692;2023-04-03T13:16:59;7.20;36.00
70820;DHT22;58439;51.046;13.692;2023-04-03T13:19:38;7.50;36.10
70820;DHT22;58439;51.046;13.692;2023-04-03T13:22:44;7.90;35.50
70820;DHT22;58439;51.046;13.692;2023-04-03T13:25:17;8.20;33.70
70820;DHT22;58439;51.046;13.692;2023-04-03T13:27:49;8.40;33.20
70820;DHT22;58439;51.046;13.692;2023-04-03T13:30:30;9.20;32.60
70820;DHT22;58439;51.046;13.692;2023-04-03T13:33:05;10.20;30.60
70820;DHT22;58439;51.046;13.692;2023-04-03T13:35:45;10.10;29.80
70820;DHT22;58439;51.046;13.692;2023-04-03T13:40:56;8.90;30.60
70820;DHT22;58439;51.046;13.692;2023-04-03T13:43:32;8.50;31.30
70820;DHT22;58439;51.046;13.692;2023-04-03T13:46:24;8.60;31.40
70820;DHT22;58439;51.046;13.692;2023-04-03T13:48:55;8.90;30.90
70820;DHT22;58439;51.046;13.692;2023-04-03T13:51:45;9.00;30.60
70820;DHT22;58439;51.046;13.692;2023-04-03T13:54:34;9.20;30.80
70820;DHT22;58439;51.046;13.692;2023-04-03T13:57:24;9.20;31.10
70820;DHT22;58439;51.046;13.692;2023-04-03T14:00:48;9.30;31.40
70820;DHT22;58439;51.046;13.692;2023-04-03T14:06:49;8.40;30.80
70820;DHT22;58439;51.046;13.692;2023-04-03T14:09:23;7.90;31.50
70820;DHT22;58439;51.046;13.692;2023-04-03T14:12:38;7.60;32.20
70820;DHT22;58439;51.046;13.692;2023-04-03T14:15:18;7.30;33.10
70820;DHT22;58439;51.046;13.692;2023-04-03T14:17:51;7.20;34.20
70820;DHT22;58439;51.046;13.692;2023-04-03T14:20:22;7.60;34.50
70820;DHT22;58439;51.046;13.692;2023-04-03T14:22:53;8.60;32.60
70820;DHT22;58439;51.046;13.692;2023-04-03T14:25:25;9.30;31.20
70820;DHT22;58439;51.046;13.692;2023-04-03T14:28:12;9.10;30.40
70820;DHT22;58439;51.046;13.692;2023-04-03T14:35:14;7.90;31.60
70820;DHT22;58439;51.046;13.692;2023-04-03T14:37:54;7.40;32.70
70820;DHT22;58439;51.046;13.692;2023-04-03T14:40:25;7.20;33.50
70820;DHT22;58439;51.046;13.692;2023-04-03T14:42:54;7.00;34.00
70820;DHT22;58439;51.046;13.692;2023-04-03T14:45:23;6.90;34.80
70820;DHT22;58439;51.046;13.692;2023-04-03T14:47:54;6.90;35.30
70820;DHT22;58439;51.046;13.692;2023-04-03T14:50:27;6.90;35.20
70820;DHT22;58439;51.046;13.692;2023-04-03T14:52:58;6.80;34.70
70820;DHT22;58439;51.046;13.692;2023-04-03T14:55:28;6.90;34.80
70820;DHT22;58439;51.046;13.692;2023-04-03T14:57:56;7.10;34.50
70820;DHT22;58439;51.046;13.692;2023-04-03T15:00:23;7.40;35.30
70820;DHT22;58439;51.046;13.692;2023-04-03T15:02:51;7.60;33.40
70820;DHT22;58439;51.046;13.692;2023-04-03T15:05:18;7.90;32.90
70820;DHT22;58439;51.046;13.692;2023-04-03T15:07:58;8.10;33.00
70820;DHT22;58439;51.046;13.692;2023-04-03T15:10:29;9.20;32.10
70820;DHT22;58439;51.046;13.692;2023-04-03T15:12:58;10.20;30.00
70820;DHT22;58439;51.046;13.692;2023-04-03T15:15:28;10.40;28.90
70820;DHT22;58439;51.046;13.692;2023-04-03T15:18:04;10.00;29.00
70820;DHT22;58439;51.046;13.692;2023-04-03T15:20:32;9.60;29.20
70820;DHT22;58439;51.046;13.692;2023-04-03T15:23:04;9.40;29.50
70820;DHT22;58439;51.046;13.692;2023-04-03T15:25:38;9.20;29.20
70820;DHT22;58439;51.046;13.692;2023-04-03T15:28:11;9.30;29.10
70820;DHT22;58439;51.046;13.692;2023-04-03T15:31:10;9.40;29.10
70820;DHT22;58439;51.046;13.692;2023-04-03T15:33:51;9.40;28.90
70820;DHT22;58439;51.046;13.692;2023-04-03T15:36:18;9.40;29.10
70820;DHT22;58439;51.046;13.692;2023-04-03T15:39:00;9.80;28.90
70820;DHT22;58439;51.046;13.692;2023-04-03T15:41:28;10.20;27.70
70820;DHT22;58439;51.046;13.692;2023-04-03T15:43:55;9.90;27.60
70820;DHT22;58439;51.046;13.692;2023-04-03T15:46:25;9.20;28.30
70820;DHT22;58439;51.046;13.692;2023-04-03T15:48:54;8.50;29.20
70820;DHT22;58439;51.046;13.692;2023-04-03T15:51:21;7.80;30.00
70820;DHT22;58439;51.046;13.692;2023-04-03T15:53:52;7.30;31.10
70820;DHT22;58439;51.046;13.692;2023-04-03T15:56:19;6.90;31.90
70820;DHT22;58439;51.046;13.692;2023-04-03T15:58:46;6.70;33.00
70820;DHT22;58439;51.046;13.692;2023-04-03T16:01:13;6.50;33.50
70820;DHT22;58439;51.046;13.692;2023-04-03T16:03:42;6.30;34.10
70820;DHT22;58439;51.046;13.692;2023-04-03T16:06:14;6.20;34.70
70820;DHT22;58439;51.046;13.692;2023-04-03T16:08:42;6.10;35.40
70820;DHT22;58439;51.046;13.692;2023-04-03T16:11:09;6.10;35.70
70820;DHT22;58439;51.046;13.692;2023-04-03T16:13:36;6.00;35.50
70820;DHT22;58439;51.046;13.692;2023-04-03T16:16:04;5.90;35.70
70820;DHT22;58439;51.046;13.692;2023-04-03T16:18:34;5.80;36.10
70820;DHT22;58439;51.046;13.692;2023-04-03T16:21:04;5.70;36.20
70820;DHT22;58439;51.046;13.692;2023-04-03T16:23:34;5.70;36.30
70820;DHT22;58439;51.046;13.692;2023-04-03T16:29:57;5.60;36.60
70820;DHT22;58439;51.046;13.692;2023-04-03T16:32:29;5.50;36.60
70820;DHT22;58439;51.046;13.692;2023-04-03T16:34:58;5.50;36.70
70820;DHT22;58439;51.046;13.692;2023-04-03T16:37:30;5.40;36.90
70820;DHT22;58439;51.046;13.692;2023-04-03T16:39:58;5.40;37.00
70820;DHT22;58439;51.046;13.692;2023-04-03T16:42:26;5.30;36.70
70820;DHT22;58439;51.046;13.692;2023-04-03T16:44:53;5.20;36.80
70820;DHT22;58439;51.046;13.692;2023-04-03T16:47:20;5.20;36.90
70820;DHT22;58439;51.046;13.692;2023-04-03T16:49:47;5.10;36.90
70820;DHT22;58439;51.046;13.692;2023-04-03T16:52:15;5.00;37.10
70820;DHT22;58439;51.046;13.692;2023-04-03T16:54:43;4.90;37.10
70820;DHT22;58439;51.046;13.692;2023-04-03T16:57:10;4.90;37.00
70820;DHT22;58439;51.046;13.692;2023-04-03T16:59:37;4.90;36.90
70820;DHT22;58439;51.046;13.692;2023-04-03T17:02:08;4.90;36.70
70820;DHT22;58439;51.046;13.692;2023-04-03T17:04:36;4.90;36.60
70820;DHT22;58439;51.046;13.692;2023-04-03T17:07:03;4.90;36.70
70820;DHT22;58439;51.046;13.692;2023-04-03T17:09:33;4.80;36.80
70820;DHT22;58439;51.046;13.692;2023-04-03T17:12:01;4.80;37.20
70820;DHT22;58439;51.046;13.692;2023-04-03T17:14:32;4.70;37.50
70820;DHT22;58439;51.046;13.692;2023-04-03T17:17:01;4.60;37.20
70820;DHT22;58439;51.046;13.692;2023-04-03T17:19:29;4.60;37.00
70820;DHT22;58439;51.046;13.692;2023-04-03T17:21:58;4.50;36.80
70820;DHT22;58439;51.046;13.692;2023-04-03T17:24:25;4.50;37.10
70820;DHT22;58439;51.046;13.692;2023-04-03T17:26:54;4.40;37.50
70820;DHT22;58439;51.046;13.692;2023-04-03T17:29:21;4.30;37.70
70820;DHT22;58439;51.046;13.692;2023-04-03T17:31:48;4.20;38.10
70820;DHT22;58439;51.046;13.692;2023-04-03T17:34:16;4.10;38.30
70820;DHT22;58439;51.046;13.692;2023-04-03T17:36:43;3.90;38.40
70820;DHT22;58439;51.046;13.692;2023-04-03T17:39:10;3.80;38.90
70820;DHT22;58439;51.046;13.692;2023-04-03T17:41:42;3.70;39.10
70820;DHT22;58439;51.046;13.692;2023-04-03T17:44:12;3.60;39.30
70820;DHT22;58439;51.046;13.692;2023-04-03T17:46:39;3.50;39.70
70820;DHT22;58439;51.046;13.692;2023-04-03T17:49:08;3.40;39.90
70820;DHT22;58439;51.046;13.692;2023-04-03T17:51:43;3.30;40.20
70820;DHT22;58439;51.046;13.692;2023-04-03T17:54:13;3.30;40.20
70820;DHT22;58439;51.046;13.692;2023-04-03T17:56:40;3.30;40.50
70820;DHT22;58439;51.046;13.692;2023-04-03T17:59:14;3.30;40.60
70820;DHT22;58439;51.046;13.692;2023-04-03T18:01:44;3.20;40.70
70820;DHT22;58439;51.046;13.692;2023-04-03T18:04:15;3.20;41.00
70820;DHT22;58439;51.046;13.692;2023-04-03T18:06:45;3.20;41.30
70820;DHT22;58439;51.046;13.692;2023-04-03T18:09:26;3.10;42.50
70820;DHT22;58439;51.046;13.692;2023-04-03T18:11:57;3.00;41.70
70820;DHT22;58439;51.046;13.692;2023-04-03T18:14:27;2.90;41.90
70820;DHT22;58439;51.046;13.692;2023-04-03T18:16:55;2.80;42.20
70820;DHT22;58439;51.046;13.692;2023-04-03T18:19:25;2.80;42.50
70820;DHT22;58439;51.046;13.692;2023-04-03T18:21:58;2.70;42.70
70820;DHT22;58439;51.046;13.692;2023-04-03T18:24:32;2.70;43.20
70820;DHT22;58439;51.046;13.692;2023-04-03T18:27:12;2.70;43.30
70820;DHT22;58439;51.046;13.692;2023-04-03T18:29:44;2.60;43.80
70820;DHT22;58439;51.046;13.692;2023-04-03T18:32:17;2.70;44.20
70820;DHT22;58439;51.046;13.692;2023-04-03T18:34:46;2.70;44.50
70820;DHT22;58439;51.046;13.692;2023-04-03T18:37:15;2.70;44.50
70820;DHT22;58439;51.046;13.692;2023-04-03T18:39:42;2.80;44.60
70820;DHT22;58439;51.046;13.692;2023-04-03T18:42:16;2.80;44.70
70820;DHT22;58439;51.046;13.692;2023-04-03T18:44:48;2.80;44.80
70820;DHT22;58439;51.046;13.692;2023-04-03T18:52:08;2.80;44.80